Louisa, VA

9:47 AM EDT on August 27, 2014 (GMT -0400)
Louisa - Northside | Change Station
CLOSE
Current Station
Personal Weather Station
Location: Louisa, VA
Elevation: 371 ft
Nearby Weather Stations

Elev 371 ft 38.04 °N, 78.01 °W | Updated 4 seconds ago

Clear
Clear
70.2 °F
Feels Like 70.2 °F
N
0.0
Wind Variable Wind from North
Gusts 3.0 mph

Today
High -- | Low -- °F
--% Chance of Precip.
Yesterday
High -- | Low -- °F
Precip. -- in
6:37 AM 7:48 PM
Waxing Crescent, 4% visible
Pressure 30.09 in
Visibility 10.0 miles
Clouds Clear
Dew Point 67 °F
Humidity 89%
Rainfall 0.00 in
Snow Depth Not available.
UV 4 out of 12
Pollen 9.40 out of 12
Air Quality Not available.
Flu Activity Not available.
METAR KLKU 271335Z AUTO 00000KT 10SM CLR 23/18 A3009 RMK AO2

More Conditions Fewer Conditions

Pressure 30.09 in
Visibility 10.0 miles
Clouds Clear
Dew Point 67 °F
Humidity 89%
Rainfall 0.00 in
Snow Depth Not available.
UV 4 out of 12
Pollen 9.40 out of 12
Air Quality Not available.
Flu Activity Not available.
METAR KLKU 271335Z AUTO 00000KT 10SM CLR 23/18 A3009 RMK AO2

More Conditions Fewer Conditions

10-Day Weather Forecast

Almanac

Astronomy

Aug. 27, 2014 Rise Set
Actual Time 6:37 AM EDT 7:48 PM EDT
Civil Twilight 6:10 AM EDT 8:16 PM EDT
Nautical Twilight 5:37 AM EDT 8:48 PM EDT
Astronomical Twilight 5:03 AM EDT 9:22 PM EDT
Moon 8:29 AM EDT 8:43 PM EDT
Length of Visible Light 14h 05m
Length of Day
13h 11m
Tomorrow will be 2m 19s shorter.
Waxing Crescent, 4% of the Moon is Illuminated
Today
Waxing Crescent
Sep 2
First Quarter
Sep 8
Full
Sep 15
Last Quarter
Sep 24
New

Today's Extremes

State Highs State Lows

Community

WunderPhotos

Upload Photos

1,747,684 photos uploaded!

Nearby

Snow Depth

Station Depth Elevation
No new snow has been reported.

Earthquake Activity

City Distance Mag. Time & Date
No recent earthquake activity has been reported nearby.
Minimum magnitude displayed is 2.5.

Coastal Water Temperatures

Place Temperature
No Stations Reporting

Nearby Weather Stations